Time;durP1;ratioP1;P1;durP2;ratioP2;P2;SDS_P1;SDS_P2;PMS_P1;PMS_P2;Temp;Humidity;BMP_temperature;BMP_pressure;BME280_temperature;BME280_humidity;BME280_pressure;Samples;Min_cycle;Max_cycle;Signal;HPM_P1;HPM_P2
2022/05/08 00:00:07;;;;;;;19.90;14.10;;;;;;;18.70;49.06;99545.16;230302;1233;139392;-59
2022/05/08 00:05:39;;;;;;;18.40;14.10;;;;;;;18.65;49.31;99535.70;229772;1233;139633;-60
2022/05/08 00:10:44;;;;;;;27.20;15.70;;;;;;;18.62;49.45;99539.73;229133;1233;140492;-58
2022/05/08 00:15:49;;;;;;;24.90;15.60;;;;;;;18.57;49.50;99535.17;229361;1232;140269;-59
2022/05/08 00:20:52;;;;;;;22.50;15.70;;;;;;;18.56;49.70;99530.41;230006;1232;138871;-61
2022/05/08 00:26:07;;;;;;;24.90;16.50;;;;;;;18.53;49.82;99526.34;229109;1232;139347;-59
2022/05/08 00:31:19;;;;;;;22.80;16.20;;;;;;;18.54;49.89;99524.33;229750;1232;139750;-59
2022/05/08 00:36:28;;;;;;;27.80;17.20;;;;;;;18.50;49.85;99525.03;229291;1232;138763;-60
2022/05/08 00:41:38;;;;;;;24.00;17.20;;;;;;;18.43;49.94;99519.73;229613;1232;142237;-59
2022/05/08 00:46:41;;;;;;;23.90;16.70;;;;;;;18.38;50.00;99513.13;228825;1232;138844;-60
2022/05/08 00:51:48;;;;;;;28.20;17.50;;;;;;;18.36;49.98;99511.85;230137;1232;140510;-60
2022/05/08 00:56:57;;;;;;;24.70;17.40;;;;;;;18.37;50.22;99513.55;229338;1232;139727;-59
2022/05/08 01:02:05;;;;;;;22.90;16.00;;;;;;;18.39;50.12;99516.81;229349;1232;139486;-59
2022/05/08 01:07:15;;;;;;;22.90;15.90;;;;;;;18.33;50.28;99515.49;229710;1233;139365;-58
2022/05/08 01:12:23;;;;;;;24.90;17.30;;;;;;;18.29;50.25;99517.13;229993;1233;139651;-59
2022/05/08 01:17:30;;;;;;;25.00;16.50;;;;;;;18.27;50.48;99515.73;229545;1232;138857;-58
2022/05/08 01:22:34;;;;;;;23.60;17.10;;;;;;;18.26;50.38;99515.80;229623;1231;139708;-58
2022/05/08 01:27:39;;;;;;;20.80;17.20;;;;;;;18.25;50.45;99521.82;229803;1232;140886;-59
2022/05/08 01:32:46;;;;;;;25.80;17.80;;;;;;;18.23;50.61;99518.02;229512;1232;139119;-59
2022/05/08 01:37:53;;;;;;;25.90;19.00;;;;;;;18.20;50.62;99515.70;229390;1233;139507;-59
2022/05/08 01:43:06;;;;;;;30.30;19.40;;;;;;;18.19;50.87;99516.91;228926;1232;140300;-58
2022/05/08 01:48:22;;;;;;;28.70;19.40;;;;;;;18.16;51.01;99516.41;229675;1232;139685;-59
2022/05/08 01:53:34;;;;;;;27.20;19.20;;;;;;;18.12;51.13;99512.30;230686;1232;140459;-60
2022/05/08 01:58:40;;;;;;;24.90;18.40;;;;;;;18.07;51.13;99510.91;229978;1232;141135;-59
2022/05/08 02:03:45;;;;;;;25.80;17.40;;;;;;;18.04;51.20;99509.20;229939;1233;139482;-59
2022/05/08 02:08:58;;;;;;;25.30;17.60;;;;;;;18.02;51.34;99511.52;229607;1232;139068;-59
2022/05/08 02:14:06;;;;;;;26.50;18.20;;;;;;;18.00;51.27;99508.27;229382;1232;139369;-60
2022/05/08 02:19:14;;;;;;;25.50;17.80;;;;;;;18.01;51.24;99510.02;230151;1232;138809;-60
2022/05/08 02:24:19;;;;;;;26.40;18.00;;;;;;;17.99;51.45;99509.11;229223;1232;141510;-59
2022/05/08 02:29:23;;;;;;;25.40;18.60;;;;;;;17.99;51.57;99509.26;229120;1233;140418;-63
2022/05/08 02:34:32;;;;;;;24.50;17.50;;;;;;;17.99;51.56;99505.20;229623;1232;139618;-59
2022/05/08 02:39:36;;;;;;;23.00;16.80;;;;;;;18.01;51.47;99504.28;229766;1232;139539;-59
2022/05/08 02:44:40;;;;;;;25.40;17.60;;;;;;;18.02;51.54;99506.38;230137;1232;139035;-60
2022/05/08 02:49:44;;;;;;;22.90;17.90;;;;;;;18.01;51.80;99505.89;229501;1231;138856;-60
2022/05/08 02:54:57;;;;;;;23.20;17.60;;;;;;;17.98;51.68;99505.29;229274;1233;139592;-60
2022/05/08 03:00:08;;;;;;;26.80;17.40;;;;;;;17.99;51.68;99512.50;229365;1233;140002;-59
2022/05/08 03:05:16;;;;;;;24.30;17.90;;;;;;;18.01;51.68;99516.67;229298;1232;140754;-59
2022/05/08 03:10:20;;;;;;;25.90;17.20;;;;;;;18.01;51.70;99522.94;229732;1233;139664;-59
2022/05/08 03:15:28;;;;;;;23.20;18.10;;;;;;;17.97;51.98;99518.41;229171;1232;139468;-59
2022/05/08 03:20:41;;;;;;;26.00;18.40;;;;;;;17.97;51.95;99521.80;229756;1232;139087;-58
2022/05/08 03:25:44;;;;;;;28.80;19.40;;;;;;;17.94;51.99;99522.80;229260;1231;139977;-61
2022/05/08 03:30:49;;;;;;;26.00;18.50;;;;;;;17.91;52.12;99518.41;230307;1232;139724;-62
2022/05/08 03:35:56;;;;;;;24.90;18.50;;;;;;;17.89;52.32;99522.54;229433;1232;140485;-62
2022/05/08 03:41:07;;;;;;;30.00;19.30;;;;;;;17.84;52.30;99530.52;229295;1232;140878;-62
2022/05/08 03:46:14;;;;;;;27.60;20.00;;;;;;;17.82;52.48;99535.11;229070;1232;140263;-58
2022/05/08 03:51:21;;;;;;;30.10;20.20;;;;;;;17.85;52.75;99540.13;229753;1231;138864;-60
2022/05/08 03:56:28;;;;;;;29.30;21.40;;;;;;;17.88;52.88;99545.91;229721;1232;139712;-60
2022/05/08 04:01:33;;;;;;;33.00;23.20;;;;;;;17.93;52.78;99553.36;230115;1233;139040;-60
2022/05/08 04:06:44;;;;;;;35.50;25.10;;;;;;;17.98;52.99;99556.94;229714;1232;138786;-60
2022/05/08 04:11:51;;;;;;;33.30;23.70;;;;;;;17.99;53.01;99559.55;228963;1233;139689;-60
2022/05/08 04:16:54;;;;;;;33.00;23.60;;;;;;;17.99;53.14;99563.52;229724;1232;139956;-60
2022/05/08 04:27:25;;;;;;;31.00;23.80;;;;;;;17.95;53.22;99566.52;229122;1232;139893;-63
2022/05/08 04:32:29;;;;;;;32.70;23.80;;;;;;;17.95;53.28;99569.02;228866;1231;140060;-59
2022/05/08 04:37:32;;;;;;;35.20;24.90;;;;;;;17.95;53.40;99574.29;229144;1232;139153;-61
2022/05/08 04:42:36;;;;;;;32.40;23.60;;;;;;;17.94;53.42;99580.95;229213;1232;139527;-59
2022/05/08 04:47:41;;;;;;;29.80;22.40;;;;;;;17.94;53.47;99577.58;229407;1232;139227;-60
2022/05/08 04:52:47;;;;;;;33.70;22.40;;;;;;;17.94;53.57;99580.27;228989;1232;139452;-59
2022/05/08 04:57:52;;;;;;;32.20;22.00;;;;;;;17.95;53.56;99581.95;228904;1232;140276;-59
2022/05/08 05:02:56;;;;;;;31.10;20.80;;;;;;;17.91;53.73;99584.27;229055;1231;140540;-61
2022/05/08 05:07:59;;;;;;;33.00;21.90;;;;;;;17.90;53.92;99589.23;229883;1232;139737;-61
2022/05/08 05:13:04;;;;;;;34.30;21.30;;;;;;;17.99;53.80;99589.38;229420;1232;141098;-59
2022/05/08 05:18:16;;;;;;;33.40;20.70;;;;;;;18.09;53.96;99587.95;230000;1232;139945;-60
2022/05/08 05:23:20;;;;;;;32.50;21.70;;;;;;;18.24;53.85;99593.73;230216;1232;140098;-60
2022/05/08 05:28:23;;;;;;;30.80;22.30;;;;;;;18.34;53.84;99593.59;229674;1232;139709;-62
2022/05/08 05:33:26;;;;;;;33.10;24.00;;;;;;;18.42;53.70;99600.06;229405;1233;140878;-62
2022/05/08 05:38:32;;;;;;;36.40;23.50;;;;;;;18.49;53.63;99604.30;229873;1232;138965;-60
2022/05/08 05:43:39;;;;;;;36.00;23.90;;;;;;;18.58;53.47;99603.77;229266;1231;139277;-60
2022/05/08 05:48:45;;;;;;;29.90;22.80;;;;;;;18.61;53.27;99599.90;228944;1232;139134;-58
2022/05/08 05:53:49;;;;;;;34.80;24.10;;;;;;;18.64;53.34;99608.23;229666;1232;139930;-60
2022/05/08 05:59:00;;;;;;;13.10;11.20;;;;;;;18.68;53.18;99611.13;229607;1232;138890;-61
2022/05/08 06:04:04;;;;;;;37.30;23.00;;;;;;;18.85;54.04;99613.66;230125;1232;139950;-62
2022/05/08 06:09:08;;;;;;;32.00;23.10;;;;;;;18.94;53.33;99614.45;229609;1231;139822;-61
2022/05/08 06:14:18;;;;;;;34.40;23.70;;;;;;;19.00;53.06;99615.42;229806;1232;141742;-59
2022/05/08 06:19:28;;;;;;;29.80;20.90;;;;;;;19.17;53.41;99614.39;229415;1231;140514;-60
2022/05/08 06:24:34;;;;;;;23.40;17.00;;;;;;;19.38;53.41;99612.37;230088;1232;139551;-59
2022/05/08 06:29:39;;;;;;;;;;;;;;;19.71;53.85;99617.18;229689;1232;140723;-59
2022/05/08 06:34:42;;;;;;;30.80;21.30;;;;;;;19.80;52.64;99620.51;229836;1232;125971;-60
2022/05/08 06:39:52;;;;;;;28.30;20.20;;;;;;;19.73;52.35;99618.48;229051;1232;139027;-60
2022/05/08 06:44:59;;;;;;;24.60;18.80;;;;;;;19.69;52.27;99616.45;229586;1232;139595;-59
2022/05/08 06:50:02;;;;;;;26.30;20.40;;;;;;;19.69;52.22;99620.86;230259;1232;139849;-61
2022/05/08 06:55:09;;;;;;;28.50;20.30;;;;;;;19.69;52.04;99623.36;229070;1232;139581;-60
2022/05/08 07:05:54;;;;;;;28.70;21.20;;;;;;;19.64;52.18;99629.36;229677;1231;139348;-60
2022/05/08 07:11:00;;;;;;;27.50;20.20;;;;;;;19.58;52.05;99630.38;229890;1232;139241;-61
2022/05/08 07:16:07;;;;;;;43.40;31.30;;;;;;;19.63;52.13;99624.04;229372;1231;139079;-61
2022/05/08 07:21:11;;;;;;;28.00;19.10;;;;;;;19.71;51.94;99626.35;229540;1232;139785;-60
2022/05/08 07:26:23;;;;;;;26.80;18.60;;;;;;;19.79;51.73;99628.33;229638;1232;139119;-62
2022/05/08 07:31:32;;;;;;;26.00;17.80;;;;;;;19.87;51.42;99623.50;229888;1232;140302;-59
2022/05/08 07:36:36;;;;;;;22.50;16.30;;;;;;;19.95;51.24;99628.33;229848;1232;139549;-58
2022/05/08 07:41:39;;;;;;;20.80;15.80;;;;;;;20.02;51.03;99630.55;229737;1231;139616;-61
2022/05/08 07:46:42;;;;;;;22.20;15.40;;;;;;;20.08;50.71;99635.91;229835;1232;139802;-61
2022/05/08 07:51:46;;;;;;;19.90;14.10;;;;;;;20.15;50.61;99633.17;229784;1232;139015;-59
2022/05/08 07:56:50;;;;;;;18.90;14.30;;;;;;;20.25;50.34;99633.80;229586;1231;139676;-62
2022/05/08 08:01:58;;;;;;;18.60;13.80;;;;;;;20.31;50.02;99638.46;229253;1232;139858;-61
2022/05/08 08:07:08;;;;;;;15.60;13.20;;;;;;;20.40;49.82;99640.62;229285;1231;139747;-60
2022/05/08 08:12:17;;;;;;;17.70;12.50;;;;;;;20.47;49.74;99636.68;229838;1232;140653;-62
2022/05/08 08:17:30;;;;;;;16.80;13.40;;;;;;;20.57;49.53;99638.63;229209;1232;139700;-59
2022/05/08 08:22:34;;;;;;;17.60;12.80;;;;;;;20.65;49.37;99636.77;229599;1231;140116;-59
2022/05/08 08:27:45;;;;;;;24.20;13.90;;;;;;;20.79;49.25;99640.49;229719;1232;140016;-61
2022/05/08 08:32:48;;;;;;;17.40;12.40;;;;;;;20.89;48.87;99640.34;229684;1232;139586;-58
2022/05/08 08:37:52;;;;;;;17.70;11.90;;;;;;;20.98;48.87;99641.25;229880;1232;140075;-59
2022/05/08 08:42:58;;;;;;;16.00;12.20;;;;;;;21.05;48.65;99644.59;229207;1232;138873;-63
2022/05/08 08:48:08;;;;;;;14.50;11.80;;;;;;;21.11;48.56;99644.52;229515;1231;141026;-59
2022/05/08 08:53:19;;;;;;;17.60;10.80;;;;;;;21.24;48.30;99649.40;229421;1232;140071;-60
2022/05/08 08:58:23;;;;;;;15.70;11.10;;;;;;;21.38;48.06;99650.95;229524;1231;139277;-58
2022/05/08 09:03:29;;;;;;;17.90;10.40;;;;;;;21.51;47.79;99649.36;230143;1232;139865;-61
2022/05/08 09:08:37;;;;;;;14.20;9.60;;;;;;;21.59;47.45;99644.39;229723;1232;139615;-62
2022/05/08 09:13:51;;;;;;;13.20;9.20;;;;;;;21.74;47.55;99643.20;229928;1232;139692;-59
2022/05/08 09:18:56;;;;;;;11.70;9.60;;;;;;;21.96;47.62;99641.11;229614;1232;138805;-60
2022/05/08 09:24:09;;;;;;;12.40;9.00;;;;;;;22.17;47.06;99640.43;229784;1232;138755;-62
2022/05/08 09:29:25;;;;;;;13.70;9.50;;;;;;;22.29;46.58;99633.98;230692;1231;139155;-61
2022/05/08 09:34:28;;;;;;;12.30;7.90;;;;;;;22.33;45.91;99635.75;229792;1232;140193;-61
2022/05/08 09:39:33;;;;;;;13.10;8.10;;;;;;;22.35;45.82;99636.78;229781;1232;138981;-61
2022/05/08 09:45:07;;;;;;;13.50;8.80;;;;;;;22.40;45.61;99631.40;229844;1231;140320;-61
2022/05/08 09:50:18;;;;;;;11.30;7.50;;;;;;;22.44;45.45;99626.48;229867;1232;138982;-60
2022/05/08 09:55:23;;;;;;;11.00;7.90;;;;;;;22.58;45.76;99627.89;230521;1232;139781;-59
2022/05/08 10:00:27;;;;;;;11.50;8.50;;;;;;;22.78;45.73;99628.07;229978;1232;138839;-61
2022/05/08 10:05:30;;;;;;;9.90;7.40;;;;;;;22.79;45.26;99624.89;229886;1232;139035;-60
2022/05/08 10:16:06;;;;;;;8.40;7.10;;;;;;;22.71;45.11;99613.40;229430;1231;138800;-61
2022/05/08 10:21:12;;;;;;;11.10;7.60;;;;;;;22.76;45.09;99609.99;230404;1232;139508;-61
2022/05/08 10:26:29;;;;;;;8.10;7.30;;;;;;;22.87;45.28;99604.11;229722;1232;138713;-62
2022/05/08 10:31:48;;;;;;;10.80;8.10;;;;;;;23.17;45.38;99598.12;228880;1232;140689;-60
2022/05/08 10:37:27;;;;;;;12.50;7.30;;;;;;;23.31;44.72;99598.64;230099;1231;138875;-62
2022/05/08 10:42:44;;;;;;;9.30;6.50;;;;;;;23.41;44.40;99592.84;230438;1231;230548;-60
2022/05/08 10:47:47;;;;;;;10.80;6.50;;;;;;;23.43;44.07;99594.75;229623;1231;138408;-58
2022/05/08 10:53:00;;;;;;;6.50;5.50;;;;;;;23.34;43.62;99593.04;229655;1232;139284;-60
2022/05/08 10:58:07;;;;;;;12.90;6.30;;;;;;;23.35;43.24;99586.81;229488;1231;139188;-62
2022/05/08 11:03:21;;;;;;;8.70;6.20;;;;;;;23.62;43.09;99580.96;229416;1232;139482;-60
2022/05/08 11:08:29;;;;;;;7.60;5.80;;;;;;;24.02;42.68;99578.23;228963;1232;139001;-59
2022/05/08 11:13:48;;;;;;;7.90;5.70;;;;;;;24.39;42.18;99574.36;230122;1232;138727;-61
2022/05/08 11:18:58;;;;;;;7.60;5.20;;;;;;;24.81;42.12;99568.77;229199;1231;139598;-59
2022/05/08 11:24:06;;;;;;;9.10;5.70;;;;;;;25.09;41.19;99564.89;229671;1231;139408;-62
2022/05/08 11:29:18;;;;;;;9.60;5.50;;;;;;;24.97;40.59;99560.80;229166;1232;139978;-62
2022/05/08 11:39:51;;;;;;;8.40;4.60;;;;;;;24.50;39.89;99555.02;229959;1232;138728;-58
2022/05/08 11:45:27;;;;;;;8.80;4.80;;;;;;;24.26;39.88;99556.59;230007;1232;139346;-58
2022/05/08 11:50:37;;;;;;;6.80;4.90;;;;;;;24.10;39.56;99547.83;229151;1231;139899;-62
2022/05/08 11:55:44;;;;;;;9.90;4.80;;;;;;;24.00;39.78;99550.77;229147;1232;138667;-61
2022/05/08 12:00:50;;;;;;;7.90;5.30;;;;;;;23.89;39.63;99549.79;230028;1232;139679;-61
2022/05/08 12:06:15;;;;;;;6.30;5.40;;;;;;;23.82;39.82;99540.77;229388;1232;140634;-59
2022/05/08 12:11:35;;;;;;;6.30;5.20;;;;;;;23.79;39.63;99536.73;229785;1232;139577;-62
2022/05/08 12:16:39;;;;;;;7.90;5.30;;;;;;;23.78;39.83;99539.77;229498;1232;140209;-60
2022/05/08 12:21:48;;;;;;;8.60;5.90;;;;;;;23.77;39.71;99537.02;229302;1232;141822;-63
2022/05/08 12:26:56;;;;;;;7.70;5.00;;;;;;;23.79;39.64;99536.72;230178;1233;138959;-59
2022/05/08 12:32:01;;;;;;;12.10;5.40;;;;;;;23.82;39.66;99534.55;228688;1232;139256;-62
2022/05/08 12:37:05;;;;;;;9.60;5.80;;;;;;;23.88;39.68;99528.73;229827;1232;139239;-57
2022/05/08 12:42:11;;;;;;;;;;;;;;;24.20;39.78;99525.52;229460;1232;139154;-59
2022/05/08 12:47:15;;;;;;;11.30;5.60;;;;;;;24.49;39.93;99521.95;229037;1232;126515;-57
2022/05/08 12:52:19;;;;;;;127.10;88.50;;;;;;;24.85;39.58;99520.02;229589;1233;139896;-59
2022/05/08 13:02:49;;;;;;;5.90;5.30;;;;;;;25.37;39.28;99510.66;230008;1232;138740;-62
2022/05/08 13:07:55;;;;;;;6.50;4.40;;;;;;;25.12;38.95;99515.55;229263;1232;139737;-64
2022/05/08 13:13:01;;;;;;;12.30;9.00;;;;;;;24.75;38.61;99521.30;229960;1233;139732;-65
2022/05/08 13:18:07;;;;;;;8.00;4.00;;;;;;;24.48;38.71;99518.65;229946;1232;138710;-65
2022/05/08 13:23:12;;;;;;;3.90;3.50;;;;;;;24.57;38.68;99512.92;230457;1232;139037;-62
2022/05/08 13:28:19;;;;;;;5.20;3.70;;;;;;;24.81;38.79;99509.17;230646;1232;138534;-61
2022/05/08 13:33:24;;;;;;;;;;;;;;;25.00;38.64;99509.55;230448;1233;138805;-61
2022/05/08 13:38:30;;;;;;;4.90;4.00;;;;;;;25.10;38.52;99506.29;230537;1233;125083;-62
2022/05/08 13:43:38;;;;;;;13.50;11.40;;;;;;;25.26;38.54;99505.05;230316;1232;139253;-61
2022/05/08 13:48:43;;;;;;;12.20;4.80;;;;;;;25.52;38.39;99498.52;230107;1232;139764;-60
2022/05/08 13:53:47;;;;;;;8.30;3.70;;;;;;;25.74;38.03;99493.39;230819;1232;138749;-61
2022/05/08 13:58:56;;;;;;;6.00;4.50;;;;;;;25.93;37.77;99492.31;229580;1233;138627;-59
2022/05/08 14:04:00;;;;;;;8.50;4.00;;;;;;;26.12;37.55;99494.53;230278;1231;138888;-60
2022/05/08 14:09:11;;;;;;;8.90;4.70;;;;;;;26.29;37.37;99488.96;229763;1232;139148;-61
2022/05/08 14:14:25;;;;;;;7.10;4.50;;;;;;;26.45;36.97;99493.50;230467;1233;139194;-62
2022/05/08 14:19:39;;;;;;;7.10;4.40;;;;;;;26.46;36.72;99489.64;230186;1233;138776;-62
2022/05/08 14:24:51;;;;;;;6.70;4.30;;;;;;;26.40;36.57;99483.88;229760;1231;139195;-60
2022/05/08 14:29:59;;;;;;;9.10;4.40;;;;;;;26.37;36.52;99482.42;230224;1232;139283;-60
2022/05/08 14:40:32;;;;;;;126.40;101.90;;;;;;;26.14;36.36;99478.91;229816;1232;138860;-60
2022/05/08 14:45:43;;;;;;;24.30;13.90;;;;;;;26.06;36.74;99473.58;230271;1233;140097;-60
2022/05/08 14:50:51;;;;;;;9.90;7.80;;;;;;;25.86;36.79;99478.11;229795;1232;139445;-59
2022/05/08 14:55:55;;;;;;;44.30;27.00;;;;;;;25.56;36.83;99472.47;229643;1233;138891;-60
2022/05/08 15:01:05;;;;;;;15.80;9.70;;;;;;;25.29;36.76;99472.91;230216;1233;138609;-61
2022/05/08 15:06:12;;;;;;;6.60;4.50;;;;;;;25.06;36.98;99473.34;229788;1231;139157;-59
2022/05/08 15:11:21;;;;;;;10.70;5.20;;;;;;;24.89;37.01;99469.30;229775;1232;139035;-59
2022/05/08 15:16:27;;;;;;;6.00;4.00;;;;;;;24.74;37.10;99466.60;230157;1232;139243;-59
2022/05/08 15:21:33;;;;;;;9.30;3.90;;;;;;;24.57;37.56;99467.50;230179;1232;138362;-60
2022/05/08 15:26:38;;;;;;;5.60;3.80;;;;;;;24.43;37.29;99461.35;230133;1233;139797;-60
2022/05/08 15:31:42;;;;;;;4.40;3.60;;;;;;;24.34;37.25;99461.29;230277;1231;142098;-61
2022/05/08 15:36:57;;;;;;;5.60;4.20;;;;;;;24.27;37.13;99461.22;229845;1232;138818;-60
2022/05/08 15:42:02;;;;;;;7.20;4.40;;;;;;;24.21;37.11;99462.86;229663;1232;139024;-62
2022/05/08 15:47:07;;;;;;;5.90;4.40;;;;;;;24.10;37.29;99460.86;229981;1232;138252;-60
2022/05/08 15:52:16;;;;;;;6.40;4.00;;;;;;;23.97;37.27;99472.98;229165;1231;139724;-60
2022/05/08 15:57:19;;;;;;;9.90;8.50;;;;;;;23.84;37.65;99481.61;229701;1233;138755;-62
2022/05/08 16:02:22;;;;;;;20.80;13.20;;;;;;;23.77;37.82;99488.60;229886;1233;138499;-59
2022/05/08 16:07:28;;;;;;;11.20;6.30;;;;;;;23.73;38.22;99487.64;229889;1231;139628;-59
2022/05/08 16:23:18;;;;;;;5.40;4.70;;;;;;;23.43;39.15;99494.48;230473;1232;138995;-60
2022/05/08 16:28:40;;;;;;;7.20;4.70;;;;;;;23.37;39.21;99506.29;230425;1233;138405;-61
2022/05/08 16:33:45;;;;;;;7.30;4.40;;;;;;;23.36;39.49;99504.06;230038;1232;138864;-59
2022/05/08 16:38:51;;;;;;;6.80;4.60;;;;;;;23.41;39.59;99514.84;229816;1232;139336;-59
2022/05/08 16:44:06;;;;;;;6.10;4.90;;;;;;;23.37;39.29;99520.02;229709;1232;138961;-61
2022/05/08 16:49:14;;;;;;;6.90;4.40;;;;;;;23.33;39.67;99522.12;230336;1232;141016;-58
2022/05/08 16:54:22;;;;;;;13.10;5.10;;;;;;;23.32;39.67;99532.56;230500;1233;139565;-61
2022/05/08 16:59:26;;;;;;;56.40;50.50;;;;;;;23.31;39.82;99537.19;230620;1233;139200;-60
2022/05/08 17:04:30;;;;;;;33.00;28.00;;;;;;;23.28;40.01;99534.95;229776;1233;139681;-62
2022/05/08 17:09:38;;;;;;;13.90;12.30;;;;;;;23.23;40.07;99539.70;229555;1232;138833;-59
2022/05/08 17:14:43;;;;;;;7.30;5.50;;;;;;;23.14;40.37;99543.54;230049;1232;138809;-60
2022/05/08 17:19:48;;;;;;;13.60;11.40;;;;;;;23.07;40.70;99550.32;229881;1232;138784;-59
2022/05/08 17:24:59;;;;;;;16.00;9.80;;;;;;;23.02;41.17;99551.96;228945;1231;139562;-60
2022/05/08 17:30:06;;;;;;;15.50;8.20;;;;;;;23.02;41.78;99557.37;229147;1232;139706;-61
2022/05/08 17:35:16;;;;;;;8.90;6.30;;;;;;;23.03;42.04;99559.81;228236;1233;139686;-59
2022/05/08 17:40:23;;;;;;;10.50;5.70;;;;;;;22.99;42.14;99567.26;229424;1233;138801;-59
2022/05/08 17:45:34;;;;;;;7.00;5.30;;;;;;;22.96;42.15;99576.66;229913;1232;140466;-60
2022/05/08 17:50:43;;;;;;;9.20;4.30;;;;;;;22.86;42.01;99579.85;230069;1232;138898;-61
2022/05/08 17:55:51;;;;;;;5.90;4.00;;;;;;;22.74;42.06;99586.42;229836;1232;138851;-61
2022/05/08 18:00:58;;;;;;;12.80;7.60;;;;;;;22.65;42.22;99596.66;230178;1233;139239;-60
2022/05/08 18:06:09;;;;;;;16.80;7.50;;;;;;;22.53;42.53;99605.67;228955;1232;139169;-62
2022/05/08 18:11:18;;;;;;;11.00;5.40;;;;;;;22.22;42.17;99610.05;229626;1233;138913;-59
2022/05/08 18:16:24;;;;;;;43.50;36.90;;;;;;;21.83;42.29;99612.13;229241;1232;139176;-59
2022/05/08 18:21:29;;;;;;;25.40;22.70;;;;;;;21.52;42.54;99616.69;231077;1232;139270;-60
2022/05/08 18:26:33;;;;;;;4.90;3.20;;;;;;;21.24;42.61;99624.13;229302;1233;139044;-59
2022/05/08 18:31:38;;;;;;;6.50;3.20;;;;;;;20.96;42.76;99631.64;229804;1233;139026;-60
2022/05/08 18:36:45;;;;;;;4.90;2.60;;;;;;;20.76;43.05;99643.45;229489;1232;138461;-59
2022/05/08 18:41:49;;;;;;;3.40;2.40;;;;;;;20.67;43.17;99656.45;230497;1232;138427;-59
2022/05/08 18:46:53;;;;;;;3.40;1.90;;;;;;;20.58;43.35;99664.33;230344;1232;138774;-59
2022/05/08 18:52:04;;;;;;;2.50;2.00;;;;;;;20.44;43.38;99672.81;230380;1233;140223;-60
2022/05/08 18:57:09;;;;;;;4.10;2.20;;;;;;;20.36;43.72;99684.91;230042;1233;138563;-57
2022/05/08 19:02:14;;;;;;;2.60;1.90;;;;;;;20.33;44.05;99694.04;230626;1232;139106;-57
2022/05/08 19:07:24;;;;;;;2.80;1.90;;;;;;;20.28;44.32;99702.26;229687;1232;138570;-57
2022/05/08 19:12:33;;;;;;;2.70;2.20;;;;;;;20.18;44.38;99702.96;229672;1232;138896;-58
2022/05/08 19:17:47;;;;;;;4.60;2.10;;;;;;;20.14;44.45;99707.17;229368;1233;138812;-58
2022/05/08 19:22:56;;;;;;;2.70;2.10;;;;;;;20.09;44.61;99713.67;229621;1231;139583;-60
2022/05/08 19:28:01;;;;;;;4.10;2.30;;;;;;;20.01;44.86;99714.26;229759;1232;139228;-60
2022/05/08 19:38:36;;;;;;;4.10;2.50;;;;;;;19.88;45.10;99717.56;230582;1233;138829;-59
2022/05/08 19:43:47;;;;;;;4.30;2.40;;;;;;;19.79;45.28;99728.27;229240;1232;138550;-59
2022/05/08 19:48:57;;;;;;;2.80;2.20;;;;;;;19.76;45.50;99723.83;229992;1232;138860;-59
2022/05/08 19:54:10;;;;;;;6.60;2.70;;;;;;;19.74;45.32;99721.74;229565;1232;138939;-58
2022/05/08 19:59:15;;;;;;;2.60;2.10;;;;;;;19.73;45.42;99722.14;229168;1232;138607;-58
2022/05/08 20:04:20;;;;;;;3.80;2.70;;;;;;;19.76;45.51;99720.27;229441;1232;139341;-60
2022/05/08 20:09:29;;;;;;;5.80;2.30;;;;;;;19.72;45.59;99721.35;229805;1232;139293;-58
2022/05/08 20:14:40;;;;;;;7.00;2.30;;;;;;;19.69;45.58;99720.19;229657;1232;138779;-60
2022/05/08 20:19:47;;;;;;;4.40;2.30;;;;;;;19.69;45.45;99714.11;229947;1232;139319;-61
2022/05/08 20:24:58;;;;;;;4.90;2.50;;;;;;;19.68;45.60;99717.77;230298;1232;139620;-61
2022/05/08 20:30:07;;;;;;;4.70;2.60;;;;;;;19.60;45.97;99717.20;229558;1232;138968;-61
2022/05/08 20:35:18;;;;;;;4.90;2.80;;;;;;;19.50;46.23;99720.19;229289;1233;139431;-60
2022/05/08 20:40:24;;;;;;;6.50;3.10;;;;;;;19.46;46.59;99727.59;228667;1232;138741;-59
2022/05/08 20:45:29;;;;;;;5.10;3.30;;;;;;;19.45;46.63;99732.89;229144;1232;138685;-60
2022/05/08 20:51:00;;;;;;;4.00;2.40;;;;;;;19.46;46.65;99742.73;228790;1231;138548;-60
2022/05/08 20:56:07;;;;;;;3.70;2.70;;;;;;;19.48;46.69;99746.70;229100;1232;138949;-62
2022/05/08 21:01:10;;;;;;;3.10;2.70;;;;;;;19.50;46.67;99753.70;230052;1232;139215;-59
2022/05/08 21:11:50;;;;;;;4.60;3.60;;;;;;;19.47;46.99;99763.34;229390;1232;139514;-59
2022/05/08 21:16:54;;;;;;;6.50;3.90;;;;;;;19.48;46.94;99760.91;228910;1232;139112;-60
2022/05/08 21:22:01;;;;;;;5.30;3.70;;;;;;;19.53;46.97;99762.27;229700;1231;139534;-58
2022/05/08 21:27:10;;;;;;;6.30;3.80;;;;;;;19.54;46.94;99756.36;228775;1232;138467;-58
2022/05/08 21:32:13;;;;;;;5.10;3.60;;;;;;;19.60;46.82;99765.20;229778;1232;138825;-60
2022/05/08 21:37:22;;;;;;;6.70;3.90;;;;;;;19.64;46.75;99764.05;229401;1232;141325;-59
2022/05/08 21:42:32;;;;;;;7.50;3.70;;;;;;;19.61;46.79;99760.44;229159;1232;138941;-57
2022/05/08 21:47:38;;;;;;;4.80;3.90;;;;;;;19.61;46.83;99762.61;230009;1232;140558;-57
2022/05/08 21:52:47;;;;;;;6.50;3.30;;;;;;;19.59;46.61;99762.90;230040;1232;141180;-65
2022/05/08 21:57:57;;;;;;;8.30;3.90;;;;;;;19.58;46.58;99767.33;229019;1232;139714;-58
2022/05/08 22:03:05;;;;;;;7.10;3.90;;;;;;;19.57;46.69;99769.39;230459;1232;138895;-58
2022/05/08 22:08:19;;;;;;;4.60;3.40;;;;;;;19.57;46.61;99771.59;229825;1232;139168;-63
2022/05/08 22:13:26;;;;;;;6.60;3.60;;;;;;;19.55;46.66;99774.67;229893;1232;138935;-60
2022/05/08 22:23:55;;;;;;;6.20;3.80;;;;;;;19.52;46.85;99780.68;230591;1232;138850;-61
2022/05/08 22:28:59;;;;;;;4.20;3.30;;;;;;;19.51;46.96;99779.11;229728;1232;139759;-62
2022/05/08 22:34:05;;;;;;;5.00;3.10;;;;;;;19.51;46.84;99776.61;229381;1232;139445;-59
2022/05/08 22:39:10;;;;;;;4.90;3.00;;;;;;;19.50;46.70;99779.98;230192;1232;139398;-60
2022/05/08 22:44:21;;;;;;;6.20;3.40;;;;;;;19.47;46.79;99775.91;229559;1233;139501;-60
2022/05/08 22:49:25;;;;;;;4.90;3.10;;;;;;;19.45;47.03;99782.60;229281;1232;141823;-61
2022/05/08 22:54:37;;;;;;;3.30;2.70;;;;;;;19.42;47.08;99781.02;228938;1233;139011;-58
2022/05/08 22:59:42;;;;;;;5.30;3.00;;;;;;;19.44;47.18;99786.66;229532;1232;138609;-58
2022/05/08 23:04:55;;;;;;;3.70;3.20;;;;;;;19.35;47.11;99786.83;229666;1231;138785;-57
2022/05/08 23:10:01;;;;;;;5.80;3.10;;;;;;;19.34;47.04;99789.27;228969;1232;139572;-59
2022/05/08 23:15:29;;;;;;;4.40;3.10;;;;;;;19.33;47.04;99789.16;229761;1231;139132;-58
2022/05/08 23:20:42;;;;;;;4.40;2.90;;;;;;;19.35;47.04;99793.48;229711;1232;139827;-58
2022/05/08 23:25:48;;;;;;;4.80;2.90;;;;;;;19.34;47.13;99793.96;230304;1232;138751;-61
2022/05/08 23:31:05;;;;;;;4.70;2.50;;;;;;;19.29;47.03;99790.58;230160;1232;138657;-61
2022/05/08 23:36:17;;;;;;;4.50;2.50;;;;;;;19.28;47.24;99794.43;229186;1232;139098;-62
2022/05/08 23:41:20;;;;;;;5.10;2.70;;;;;;;19.29;47.25;99797.42;229057;1231;138522;-62
2022/05/08 23:46:25;;;;;;;6.30;3.00;;;;;;;19.27;47.35;99798.30;229700;1232;139712;-63
2022/05/08 23:51:42;;;;;;;3.10;2.60;;;;;;;19.27;47.40;99797.64;229097;1232;138785;-57
2022/05/08 23:56:51;;;;;;;3.50;2.90;;;;;;;19.26;47.34;99801.80;229745;1232;139937;-57
